sensor_id;sensor_type;location;lat;lon;timestamp;P1;durP1;ratioP1;P2;durP2;ratioP2
47335;SDS011;33068;51.990;5.926;2023-05-18T00:01:08;13.20;;;2.45;;
47335;SDS011;33068;51.990;5.926;2023-05-18T00:03:37;10.20;;;2.90;;
47335;SDS011;33068;51.990;5.926;2023-05-18T00:06:05;8.65;;;2.28;;
47335;SDS011;33068;51.990;5.926;2023-05-18T00:08:32;11.32;;;2.97;;
47335;SDS011;33068;51.990;5.926;2023-05-18T00:11:00;5.57;;;2.72;;
47335;SDS011;33068;51.990;5.926;2023-05-18T00:13:29;8.25;;;2.45;;
47335;SDS011;33068;51.990;5.926;2023-05-18T00:15:56;14.40;;;2.97;;
47335;SDS011;33068;51.990;5.926;2023-05-18T00:18:23;7.53;;;2.67;;
47335;SDS011;33068;51.990;5.926;2023-05-18T00:20:52;10.93;;;3.35;;
47335;SDS011;33068;51.990;5.926;2023-05-18T00:23:23;10.18;;;2.58;;
47335;SDS011;33068;51.990;5.926;2023-05-18T00:25:54;11.50;;;3.15;;
47335;SDS011;33068;51.990;5.926;2023-05-18T00:28:22;9.38;;;2.47;;
47335;SDS011;33068;51.990;5.926;2023-05-18T00:30:49;13.07;;;2.92;;
47335;SDS011;33068;51.990;5.926;2023-05-18T00:33:17;10.02;;;2.55;;
47335;SDS011;33068;51.990;5.926;2023-05-18T00:35:44;5.25;;;2.45;;
47335;SDS011;33068;51.990;5.926;2023-05-18T00:38:12;9.20;;;2.65;;
47335;SDS011;33068;51.990;5.926;2023-05-18T00:40:41;6.88;;;2.55;;
47335;SDS011;33068;51.990;5.926;2023-05-18T00:43:10;12.68;;;2.95;;
47335;SDS011;33068;51.990;5.926;2023-05-18T00:45:37;12.57;;;3.42;;
47335;SDS011;33068;51.990;5.926;2023-05-18T00:48:04;11.13;;;2.30;;
47335;SDS011;33068;51.990;5.926;2023-05-18T00:50:32;8.68;;;3.00;;
47335;SDS011;33068;51.990;5.926;2023-05-18T00:52:59;5.38;;;2.42;;
47335;SDS011;33068;51.990;5.926;2023-05-18T00:55:28;11.88;;;2.70;;
47335;SDS011;33068;51.990;5.926;2023-05-18T00:57:55;6.05;;;2.35;;
47335;SDS011;33068;51.990;5.926;2023-05-18T01:00:27;13.98;;;3.00;;
47335;SDS011;33068;51.990;5.926;2023-05-18T01:02:55;8.93;;;2.50;;
47335;SDS011;33068;51.990;5.926;2023-05-18T01:05:22;9.98;;;2.88;;
47335;SDS011;33068;51.990;5.926;2023-05-18T01:07:49;12.80;;;2.83;;
47335;SDS011;33068;51.990;5.926;2023-05-18T01:10:17;11.95;;;3.22;;
47335;SDS011;33068;51.990;5.926;2023-05-18T01:12:48;8.85;;;2.63;;
47335;SDS011;33068;51.990;5.926;2023-05-18T01:15:21;9.32;;;3.58;;
47335;SDS011;33068;51.990;5.926;2023-05-18T01:17:58;12.32;;;3.35;;
47335;SDS011;33068;51.990;5.926;2023-05-18T01:20:30;14.90;;;3.35;;
47335;SDS011;33068;51.990;5.926;2023-05-18T01:26:13;14.00;;;3.33;;
47335;SDS011;33068;51.990;5.926;2023-05-18T01:28:44;8.13;;;2.90;;
47335;SDS011;33068;51.990;5.926;2023-05-18T01:31:12;13.32;;;2.83;;
47335;SDS011;33068;51.990;5.926;2023-05-18T01:33:40;15.75;;;3.95;;
47335;SDS011;33068;51.990;5.926;2023-05-18T01:36:07;9.73;;;3.05;;
47335;SDS011;33068;51.990;5.926;2023-05-18T01:38:35;9.32;;;3.28;;
47335;SDS011;33068;51.990;5.926;2023-05-18T01:41:04;11.13;;;3.20;;
47335;SDS011;33068;51.990;5.926;2023-05-18T01:43:46;11.05;;;3.35;;
47335;SDS011;33068;51.990;5.926;2023-05-18T01:46:20;12.07;;;2.97;;
47335;SDS011;33068;51.990;5.926;2023-05-18T01:48:55;14.05;;;3.42;;
47335;SDS011;33068;51.990;5.926;2023-05-18T01:51:28;12.55;;;2.95;;
47335;SDS011;33068;51.990;5.926;2023-05-18T01:54:01;9.68;;;2.88;;
47335;SDS011;33068;51.990;5.926;2023-05-18T01:56:31;18.17;;;3.53;;
47335;SDS011;33068;51.990;5.926;2023-05-18T01:59:00;11.05;;;4.20;;
47335;SDS011;33068;51.990;5.926;2023-05-18T02:01:28;10.52;;;3.53;;
47335;SDS011;33068;51.990;5.926;2023-05-18T02:03:55;11.18;;;4.00;;
47335;SDS011;33068;51.990;5.926;2023-05-18T02:06:23;14.27;;;3.47;;
47335;SDS011;33068;51.990;5.926;2023-05-18T02:08:50;9.75;;;3.30;;
47335;SDS011;33068;51.990;5.926;2023-05-18T02:11:17;15.98;;;3.08;;
47335;SDS011;33068;51.990;5.926;2023-05-18T02:13:45;13.15;;;3.50;;
47335;SDS011;33068;51.990;5.926;2023-05-18T02:16:14;11.32;;;3.28;;
47335;SDS011;33068;51.990;5.926;2023-05-18T02:18:41;8.52;;;3.47;;
47335;SDS011;33068;51.990;5.926;2023-05-18T02:21:08;16.70;;;4.07;;
47335;SDS011;33068;51.990;5.926;2023-05-18T02:23:37;8.60;;;3.15;;
47335;SDS011;33068;51.990;5.926;2023-05-18T02:26:06;11.43;;;3.50;;
47335;SDS011;33068;51.990;5.926;2023-05-18T02:28:33;11.70;;;3.15;;
47335;SDS011;33068;51.990;5.926;2023-05-18T02:31:04;12.27;;;3.50;;
47335;SDS011;33068;51.990;5.926;2023-05-18T02:33:35;12.95;;;3.65;;
47335;SDS011;33068;51.990;5.926;2023-05-18T02:36:06;10.23;;;3.45;;
47335;SDS011;33068;51.990;5.926;2023-05-18T02:38:37;9.77;;;3.58;;
47335;SDS011;33068;51.990;5.926;2023-05-18T02:41:04;14.57;;;3.00;;
47335;SDS011;33068;51.990;5.926;2023-05-18T02:43:32;7.70;;;2.50;;
47335;SDS011;33068;51.990;5.926;2023-05-18T02:46:00;8.45;;;3.38;;
47335;SDS011;33068;51.990;5.926;2023-05-18T02:48:27;13.25;;;3.75;;
47335;SDS011;33068;51.990;5.926;2023-05-18T02:50:56;11.23;;;3.22;;
47335;SDS011;33068;51.990;5.926;2023-05-18T02:53:24;13.60;;;3.22;;
47335;SDS011;33068;51.990;5.926;2023-05-18T02:55:57;14.60;;;3.60;;
47335;SDS011;33068;51.990;5.926;2023-05-18T02:58:34;14.98;;;3.78;;
47335;SDS011;33068;51.990;5.926;2023-05-18T03:01:10;9.80;;;3.10;;
47335;SDS011;33068;51.990;5.926;2023-05-18T03:03:44;10.82;;;3.22;;
47335;SDS011;33068;51.990;5.926;2023-05-18T03:06:13;11.00;;;3.22;;
47335;SDS011;33068;51.990;5.926;2023-05-18T03:08:41;8.05;;;3.70;;
47335;SDS011;33068;51.990;5.926;2023-05-18T03:11:10;13.70;;;3.58;;
47335;SDS011;33068;51.990;5.926;2023-05-18T03:13:37;9.35;;;2.97;;
47335;SDS011;33068;51.990;5.926;2023-05-18T03:16:04;14.98;;;3.50;;
47335;SDS011;33068;51.990;5.926;2023-05-18T03:18:32;8.80;;;3.28;;
47335;SDS011;33068;51.990;5.926;2023-05-18T03:20:59;17.35;;;4.07;;
47335;SDS011;33068;51.990;5.926;2023-05-18T03:23:29;14.02;;;2.97;;
47335;SDS011;33068;51.990;5.926;2023-05-18T03:25:57;9.02;;;3.35;;
47335;SDS011;33068;51.990;5.926;2023-05-18T03:28:30;9.38;;;3.28;;
47335;SDS011;33068;51.990;5.926;2023-05-18T03:30:58;12.77;;;2.92;;
47335;SDS011;33068;51.990;5.926;2023-05-18T03:33:25;8.07;;;2.75;;
47335;SDS011;33068;51.990;5.926;2023-05-18T03:35:52;13.57;;;3.67;;
47335;SDS011;33068;51.990;5.926;2023-05-18T03:38:20;12.38;;;3.00;;
47335;SDS011;33068;51.990;5.926;2023-05-18T03:40:55;11.70;;;3.33;;
47335;SDS011;33068;51.990;5.926;2023-05-18T03:43:23;9.63;;;3.45;;
47335;SDS011;33068;51.990;5.926;2023-05-18T03:45:51;14.52;;;2.88;;
47335;SDS011;33068;51.990;5.926;2023-05-18T03:48:19;10.77;;;3.63;;
47335;SDS011;33068;51.990;5.926;2023-05-18T03:50:46;8.68;;;3.10;;
47335;SDS011;33068;51.990;5.926;2023-05-18T03:53:14;14.40;;;4.25;;
47335;SDS011;33068;51.990;5.926;2023-05-18T03:55:43;11.82;;;2.95;;
47335;SDS011;33068;51.990;5.926;2023-05-18T03:58:12;7.78;;;3.05;;
47335;SDS011;33068;51.990;5.926;2023-05-18T04:00:40;14.77;;;2.83;;
47335;SDS011;33068;51.990;5.926;2023-05-18T04:03:07;13.80;;;2.90;;
47335;SDS011;33068;51.990;5.926;2023-05-18T04:05:37;6.60;;;2.63;;
47335;SDS011;33068;51.990;5.926;2023-05-18T04:08:05;18.27;;;3.53;;
47335;SDS011;33068;51.990;5.926;2023-05-18T04:10:33;13.07;;;3.00;;
47335;SDS011;33068;51.990;5.926;2023-05-18T04:13:00;7.32;;;3.20;;
47335;SDS011;33068;51.990;5.926;2023-05-18T04:15:28;7.82;;;2.60;;
47335;SDS011;33068;51.990;5.926;2023-05-18T04:17:57;6.93;;;2.58;;
47335;SDS011;33068;51.990;5.926;2023-05-18T04:20:26;7.47;;;2.97;;
47335;SDS011;33068;51.990;5.926;2023-05-18T04:22:54;12.15;;;2.90;;
47335;SDS011;33068;51.990;5.926;2023-05-18T04:25:22;10.25;;;2.45;;
47335;SDS011;33068;51.990;5.926;2023-05-18T04:27:52;10.20;;;2.45;;
47335;SDS011;33068;51.990;5.926;2023-05-18T04:30:21;14.02;;;3.30;;
47335;SDS011;33068;51.990;5.926;2023-05-18T04:32:50;13.95;;;2.72;;
47335;SDS011;33068;51.990;5.926;2023-05-18T04:35:19;8.27;;;1.85;;
47335;SDS011;33068;51.990;5.926;2023-05-18T04:37:46;7.65;;;2.15;;
47335;SDS011;33068;51.990;5.926;2023-05-18T04:40:15;11.70;;;2.72;;
47335;SDS011;33068;51.990;5.926;2023-05-18T04:42:45;10.05;;;2.72;;
47335;SDS011;33068;51.990;5.926;2023-05-18T04:45:15;10.05;;;2.42;;
47335;SDS011;33068;51.990;5.926;2023-05-18T04:47:44;8.35;;;2.00;;
47335;SDS011;33068;51.990;5.926;2023-05-18T04:50:14;11.57;;;2.90;;
47335;SDS011;33068;51.990;5.926;2023-05-18T04:52:42;11.07;;;2.55;;
47335;SDS011;33068;51.990;5.926;2023-05-18T04:55:13;16.65;;;2.55;;
47335;SDS011;33068;51.990;5.926;2023-05-18T04:57:44;14.35;;;2.53;;
47335;SDS011;33068;51.990;5.926;2023-05-18T05:00:12;10.00;;;2.25;;
47335;SDS011;33068;51.990;5.926;2023-05-18T05:02:40;13.10;;;2.50;;
47335;SDS011;33068;51.990;5.926;2023-05-18T05:05:07;13.70;;;2.00;;
47335;SDS011;33068;51.990;5.926;2023-05-18T05:07:36;10.77;;;2.25;;
47335;SDS011;33068;51.990;5.926;2023-05-18T05:10:03;9.10;;;1.73;;
47335;SDS011;33068;51.990;5.926;2023-05-18T05:12:31;10.80;;;1.83;;
47335;SDS011;33068;51.990;5.926;2023-05-18T05:14:58;10.18;;;1.70;;
47335;SDS011;33068;51.990;5.926;2023-05-18T05:17:25;7.78;;;2.25;;
47335;SDS011;33068;51.990;5.926;2023-05-18T05:19:52;8.90;;;2.22;;
47335;SDS011;33068;51.990;5.926;2023-05-18T05:22:19;14.10;;;2.03;;
47335;SDS011;33068;51.990;5.926;2023-05-18T05:24:48;14.93;;;2.45;;
47335;SDS011;33068;51.990;5.926;2023-05-18T05:27:15;7.63;;;1.90;;
47335;SDS011;33068;51.990;5.926;2023-05-18T05:29:44;11.77;;;2.92;;
47335;SDS011;33068;51.990;5.926;2023-05-18T05:32:12;10.43;;;1.17;;
47335;SDS011;33068;51.990;5.926;2023-05-18T05:34:40;8.45;;;1.90;;
47335;SDS011;33068;51.990;5.926;2023-05-18T05:37:11;17.42;;;2.35;;
47335;SDS011;33068;51.990;5.926;2023-05-18T05:39:39;10.43;;;1.60;;
47335;SDS011;33068;51.990;5.926;2023-05-18T05:42:07;9.82;;;2.00;;
47335;SDS011;33068;51.990;5.926;2023-05-18T05:44:34;6.68;;;1.50;;
47335;SDS011;33068;51.990;5.926;2023-05-18T05:47:03;12.20;;;1.80;;
47335;SDS011;33068;51.990;5.926;2023-05-18T05:49:31;9.10;;;1.10;;
47335;SDS011;33068;51.990;5.926;2023-05-18T05:51:58;8.20;;;1.70;;
47335;SDS011;33068;51.990;5.926;2023-05-18T05:54:25;11.13;;;1.65;;
47335;SDS011;33068;51.990;5.926;2023-05-18T05:56:53;6.78;;;1.45;;
47335;SDS011;33068;51.990;5.926;2023-05-18T05:59:22;6.13;;;1.33;;
47335;SDS011;33068;51.990;5.926;2023-05-18T06:01:49;8.05;;;2.10;;
47335;SDS011;33068;51.990;5.926;2023-05-18T06:04:16;5.30;;;1.55;;
47335;SDS011;33068;51.990;5.926;2023-05-18T06:06:45;12.70;;;1.45;;
47335;SDS011;33068;51.990;5.926;2023-05-18T06:09:13;9.93;;;1.77;;
47335;SDS011;33068;51.990;5.926;2023-05-18T06:11:40;9.25;;;1.65;;
47335;SDS011;33068;51.990;5.926;2023-05-18T06:14:08;6.90;;;1.42;;
47335;SDS011;33068;51.990;5.926;2023-05-18T06:16:37;10.18;;;1.92;;
47335;SDS011;33068;51.990;5.926;2023-05-18T06:19:04;11.88;;;1.55;;
47335;SDS011;33068;51.990;5.926;2023-05-18T06:21:31;11.82;;;1.80;;
47335;SDS011;33068;51.990;5.926;2023-05-18T06:24:00;8.95;;;1.40;;
47335;SDS011;33068;51.990;5.926;2023-05-18T06:26:47;13.65;;;1.77;;
47335;SDS011;33068;51.990;5.926;2023-05-18T06:29:45;6.72;;;1.77;;
47335;SDS011;33068;51.990;5.926;2023-05-18T06:32:34;9.35;;;1.90;;
47335;SDS011;33068;51.990;5.926;2023-05-18T06:35:01;10.65;;;1.75;;
47335;SDS011;33068;51.990;5.926;2023-05-18T06:37:29;8.18;;;1.55;;
47335;SDS011;33068;51.990;5.926;2023-05-18T06:39:56;6.95;;;1.60;;
47335;SDS011;33068;51.990;5.926;2023-05-18T06:42:23;6.65;;;1.50;;
47335;SDS011;33068;51.990;5.926;2023-05-18T06:45:00;8.85;;;1.50;;
47335;SDS011;33068;51.990;5.926;2023-05-18T06:47:48;8.60;;;1.80;;
47335;SDS011;33068;51.990;5.926;2023-05-18T06:50:15;9.23;;;1.52;;
47335;SDS011;33068;51.990;5.926;2023-05-18T06:52:42;9.15;;;1.52;;
47335;SDS011;33068;51.990;5.926;2023-05-18T06:55:10;8.40;;;1.58;;
47335;SDS011;33068;51.990;5.926;2023-05-18T06:57:38;11.02;;;1.75;;
47335;SDS011;33068;51.990;5.926;2023-05-18T07:00:06;7.25;;;1.20;;
47335;SDS011;33068;51.990;5.926;2023-05-18T07:02:36;6.07;;;1.27;;
47335;SDS011;33068;51.990;5.926;2023-05-18T07:05:05;7.10;;;1.50;;
47335;SDS011;33068;51.990;5.926;2023-05-18T07:07:33;15.45;;;2.13;;
47335;SDS011;33068;51.990;5.926;2023-05-18T07:10:02;12.55;;;1.42;;
47335;SDS011;33068;51.990;5.926;2023-05-18T07:12:29;13.90;;;1.73;;
47335;SDS011;33068;51.990;5.926;2023-05-18T07:14:56;12.73;;;1.88;;
47335;SDS011;33068;51.990;5.926;2023-05-18T07:17:23;11.77;;;1.83;;
47335;SDS011;33068;51.990;5.926;2023-05-18T07:19:50;9.18;;;1.60;;
47335;SDS011;33068;51.990;5.926;2023-05-18T07:22:19;13.00;;;1.67;;
47335;SDS011;33068;51.990;5.926;2023-05-18T07:24:46;8.35;;;1.63;;
47335;SDS011;33068;51.990;5.926;2023-05-18T07:27:13;8.23;;;1.60;;
47335;SDS011;33068;51.990;5.926;2023-05-18T07:29:40;7.40;;;1.17;;
47335;SDS011;33068;51.990;5.926;2023-05-18T07:32:07;6.80;;;1.38;;
47335;SDS011;33068;51.990;5.926;2023-05-18T07:34:34;10.48;;;1.67;;
47335;SDS011;33068;51.990;5.926;2023-05-18T07:37:01;8.07;;;1.25;;
47335;SDS011;33068;51.990;5.926;2023-05-18T07:39:30;9.55;;;1.25;;
47335;SDS011;33068;51.990;5.926;2023-05-18T07:41:57;4.03;;;1.35;;
47335;SDS011;33068;51.990;5.926;2023-05-18T07:44:24;8.70;;;1.67;;
47335;SDS011;33068;51.990;5.926;2023-05-18T07:46:53;9.63;;;2.17;;
47335;SDS011;33068;51.990;5.926;2023-05-18T07:49:20;5.80;;;1.48;;
47335;SDS011;33068;51.990;5.926;2023-05-18T07:51:48;7.22;;;1.33;;
47335;SDS011;33068;51.990;5.926;2023-05-18T07:54:15;6.72;;;1.60;;
47335;SDS011;33068;51.990;5.926;2023-05-18T07:56:44;14.25;;;2.17;;
47335;SDS011;33068;51.990;5.926;2023-05-18T07:59:12;14.27;;;1.50;;
47335;SDS011;33068;51.990;5.926;2023-05-18T08:01:39;9.82;;;1.67;;
47335;SDS011;33068;51.990;5.926;2023-05-18T08:04:09;5.45;;;1.15;;
47335;SDS011;33068;51.990;5.926;2023-05-18T08:06:36;9.07;;;1.88;;
47335;SDS011;33068;51.990;5.926;2023-05-18T08:09:04;10.45;;;1.52;;
47335;SDS011;33068;51.990;5.926;2023-05-18T08:11:31;10.88;;;1.60;;
47335;SDS011;33068;51.990;5.926;2023-05-18T08:14:00;7.40;;;1.45;;
47335;SDS011;33068;51.990;5.926;2023-05-18T08:16:27;5.68;;;1.23;;
47335;SDS011;33068;51.990;5.926;2023-05-18T08:18:54;4.03;;;1.13;;
47335;SDS011;33068;51.990;5.926;2023-05-18T08:21:21;14.32;;;1.58;;
47335;SDS011;33068;51.990;5.926;2023-05-18T08:23:48;3.10;;;1.00;;
47335;SDS011;33068;51.990;5.926;2023-05-18T08:26:15;6.80;;;1.17;;
47335;SDS011;33068;51.990;5.926;2023-05-18T08:28:42;7.93;;;1.42;;
47335;SDS011;33068;51.990;5.926;2023-05-18T08:31:10;8.65;;;1.35;;
47335;SDS011;33068;51.990;5.926;2023-05-18T08:33:37;6.53;;;1.55;;
47335;SDS011;33068;51.990;5.926;2023-05-18T08:36:05;10.88;;;2.25;;
47335;SDS011;33068;51.990;5.926;2023-05-18T08:38:33;5.78;;;1.70;;
47335;SDS011;33068;51.990;5.926;2023-05-18T08:41:01;6.03;;;1.48;;
47335;SDS011;33068;51.990;5.926;2023-05-18T08:43:37;11.20;;;1.42;;
47335;SDS011;33068;51.990;5.926;2023-05-18T08:46:09;6.40;;;1.48;;
47335;SDS011;33068;51.990;5.926;2023-05-18T08:48:45;7.72;;;1.13;;
47335;SDS011;33068;51.990;5.926;2023-05-18T08:51:15;10.73;;;1.55;;
47335;SDS011;33068;51.990;5.926;2023-05-18T08:53:46;8.07;;;1.48;;
47335;SDS011;33068;51.990;5.926;2023-05-18T08:56:19;8.65;;;1.85;;
47335;SDS011;33068;51.990;5.926;2023-05-18T08:58:49;9.65;;;1.67;;
47335;SDS011;33068;51.990;5.926;2023-05-18T09:01:19;7.72;;;1.10;;
47335;SDS011;33068;51.990;5.926;2023-05-18T09:03:47;12.30;;;1.95;;
47335;SDS011;33068;51.990;5.926;2023-05-18T09:06:14;8.85;;;1.48;;
47335;SDS011;33068;51.990;5.926;2023-05-18T09:08:42;5.90;;;1.20;;
47335;SDS011;33068;51.990;5.926;2023-05-18T09:11:11;8.35;;;1.67;;
47335;SDS011;33068;51.990;5.926;2023-05-18T09:13:38;7.63;;;1.55;;
47335;SDS011;33068;51.990;5.926;2023-05-18T09:16:06;10.38;;;1.67;;
47335;SDS011;33068;51.990;5.926;2023-05-18T09:18:34;9.65;;;1.52;;
47335;SDS011;33068;51.990;5.926;2023-05-18T09:21:02;6.43;;;1.13;;
47335;SDS011;33068;51.990;5.926;2023-05-18T09:23:29;11.05;;;1.92;;
47335;SDS011;33068;51.990;5.926;2023-05-18T09:25:56;6.03;;;1.60;;
47335;SDS011;33068;51.990;5.926;2023-05-18T09:28:25;8.48;;;1.60;;
47335;SDS011;33068;51.990;5.926;2023-05-18T09:30:56;5.47;;;1.58;;
47335;SDS011;33068;51.990;5.926;2023-05-18T09:33:23;11.95;;;1.90;;
47335;SDS011;33068;51.990;5.926;2023-05-18T09:35:52;11.00;;;2.13;;
47335;SDS011;33068;51.990;5.926;2023-05-18T09:38:20;8.20;;;1.58;;
47335;SDS011;33068;51.990;5.926;2023-05-18T09:40:48;10.50;;;1.85;;
47335;SDS011;33068;51.990;5.926;2023-05-18T09:43:15;8.07;;;1.83;;
47335;SDS011;33068;51.990;5.926;2023-05-18T09:45:44;9.75;;;1.30;;
47335;SDS011;33068;51.990;5.926;2023-05-18T09:48:13;4.97;;;1.27;;
47335;SDS011;33068;51.990;5.926;2023-05-18T09:50:41;9.23;;;1.85;;
47335;SDS011;33068;51.990;5.926;2023-05-18T09:53:11;10.20;;;1.27;;
47335;SDS011;33068;51.990;5.926;2023-05-18T09:55:43;8.13;;;1.67;;
47335;SDS011;33068;51.990;5.926;2023-05-18T09:58:11;5.32;;;1.15;;
47335;SDS011;33068;51.990;5.926;2023-05-18T10:00:40;9.38;;;1.27;;
47335;SDS011;33068;51.990;5.926;2023-05-18T10:03:17;6.57;;;1.58;;
47335;SDS011;33068;51.990;5.926;2023-05-18T10:05:45;6.50;;;1.20;;
47335;SDS011;33068;51.990;5.926;2023-05-18T10:08:15;5.75;;;1.08;;
47335;SDS011;33068;51.990;5.926;2023-05-18T10:10:43;8.27;;;1.30;;
47335;SDS011;33068;51.990;5.926;2023-05-18T10:13:11;7.00;;;1.60;;
47335;SDS011;33068;51.990;5.926;2023-05-18T10:15:47;6.47;;;1.50;;
47335;SDS011;33068;51.990;5.926;2023-05-18T10:18:19;7.75;;;1.42;;
47335;SDS011;33068;51.990;5.926;2023-05-18T10:20:48;5.15;;;1.73;;
47335;SDS011;33068;51.990;5.926;2023-05-18T10:23:19;6.68;;;1.55;;
47335;SDS011;33068;51.990;5.926;2023-05-18T10:25:48;6.00;;;1.30;;
47335;SDS011;33068;51.990;5.926;2023-05-18T10:28:19;9.00;;;1.85;;
47335;SDS011;33068;51.990;5.926;2023-05-18T10:30:52;12.35;;;2.08;;
47335;SDS011;33068;51.990;5.926;2023-05-18T10:33:21;10.10;;;1.80;;
47335;SDS011;33068;51.990;5.926;2023-05-18T10:35:50;6.88;;;1.83;;
47335;SDS011;33068;51.990;5.926;2023-05-18T10:38:19;4.03;;;1.35;;
47335;SDS011;33068;51.990;5.926;2023-05-18T10:40:48;7.88;;;1.75;;
47335;SDS011;33068;51.990;5.926;2023-05-18T10:43:19;9.25;;;1.98;;
47335;SDS011;33068;51.990;5.926;2023-05-18T10:45:52;8.70;;;1.13;;
47335;SDS011;33068;51.990;5.926;2023-05-18T10:48:21;4.78;;;1.45;;
47335;SDS011;33068;51.990;5.926;2023-05-18T10:50:49;6.88;;;1.40;;
47335;SDS011;33068;51.990;5.926;2023-05-18T10:53:19;6.85;;;1.10;;
47335;SDS011;33068;51.990;5.926;2023-05-18T10:55:47;7.15;;;1.42;;
47335;SDS011;33068;51.990;5.926;2023-05-18T10:58:16;8.80;;;1.63;;
47335;SDS011;33068;51.990;5.926;2023-05-18T11:00:46;10.13;;;1.77;;
47335;SDS011;33068;51.990;5.926;2023-05-18T11:03:16;4.55;;;1.48;;
47335;SDS011;33068;51.990;5.926;2023-05-18T11:05:47;4.40;;;1.67;;
47335;SDS011;33068;51.990;5.926;2023-05-18T11:08:26;6.97;;;1.63;;
47335;SDS011;33068;51.990;5.926;2023-05-18T11:10:59;9.98;;;1.95;;
47335;SDS011;33068;51.990;5.926;2023-05-18T11:13:29;9.45;;;1.52;;
47335;SDS011;33068;51.990;5.926;2023-05-18T11:16:06;8.52;;;1.80;;
47335;SDS011;33068;51.990;5.926;2023-05-18T11:18:34;11.48;;;1.73;;
47335;SDS011;33068;51.990;5.926;2023-05-18T11:24:18;5.75;;;1.63;;
47335;SDS011;33068;51.990;5.926;2023-05-18T11:26:49;12.57;;;1.83;;
47335;SDS011;33068;51.990;5.926;2023-05-18T11:29:18;4.30;;;1.85;;
47335;SDS011;33068;51.990;5.926;2023-05-18T11:31:50;5.57;;;1.77;;
47335;SDS011;33068;51.990;5.926;2023-05-18T11:37:12;7.65;;;2.33;;
47335;SDS011;33068;51.990;5.926;2023-05-18T11:39:42;10.57;;;1.80;;
47335;SDS011;33068;51.990;5.926;2023-05-18T11:42:19;6.80;;;1.45;;
47335;SDS011;33068;51.990;5.926;2023-05-18T11:44:50;10.27;;;1.58;;
47335;SDS011;33068;51.990;5.926;2023-05-18T11:47:19;8.65;;;2.00;;
47335;SDS011;33068;51.990;5.926;2023-05-18T11:49:49;8.85;;;1.30;;
47335;SDS011;33068;51.990;5.926;2023-05-18T11:52:17;4.82;;;1.70;;
47335;SDS011;33068;51.990;5.926;2023-05-18T11:54:48;6.68;;;1.90;;
47335;SDS011;33068;51.990;5.926;2023-05-18T11:57:17;10.68;;;2.10;;
47335;SDS011;33068;51.990;5.926;2023-05-18T11:59:45;6.30;;;1.33;;
47335;SDS011;33068;51.990;5.926;2023-05-18T12:02:17;5.03;;;1.42;;
47335;SDS011;33068;51.990;5.926;2023-05-18T12:04:46;8.48;;;1.92;;
47335;SDS011;33068;51.990;5.926;2023-05-18T12:07:15;6.25;;;1.88;;
47335;SDS011;33068;51.990;5.926;2023-05-18T12:09:44;7.28;;;1.52;;
47335;SDS011;33068;51.990;5.926;2023-05-18T12:12:13;13.15;;;2.13;;
47335;SDS011;33068;51.990;5.926;2023-05-18T12:14:45;6.88;;;1.55;;
47335;SDS011;33068;51.990;5.926;2023-05-18T12:17:17;7.30;;;1.48;;
47335;SDS011;33068;51.990;5.926;2023-05-18T12:19:45;6.28;;;1.33;;
47335;SDS011;33068;51.990;5.926;2023-05-18T12:22:13;6.32;;;1.95;;
47335;SDS011;33068;51.990;5.926;2023-05-18T12:24:42;7.68;;;1.45;;
47335;SDS011;33068;51.990;5.926;2023-05-18T12:27:10;14.98;;;1.80;;
47335;SDS011;33068;51.990;5.926;2023-05-18T12:29:40;10.52;;;1.92;;
47335;SDS011;33068;51.990;5.926;2023-05-18T12:32:08;26.45;;;2.10;;
47335;SDS011;33068;51.990;5.926;2023-05-18T12:34:36;4.32;;;1.58;;
47335;SDS011;33068;51.990;5.926;2023-05-18T12:37:05;5.38;;;1.80;;
47335;SDS011;33068;51.990;5.926;2023-05-18T12:39:32;9.73;;;1.88;;
47335;SDS011;33068;51.990;5.926;2023-05-18T12:42:10;6.43;;;1.52;;
47335;SDS011;33068;51.990;5.926;2023-05-18T12:44:40;8.60;;;2.40;;
47335;SDS011;33068;51.990;5.926;2023-05-18T12:47:09;5.93;;;1.77;;
47335;SDS011;33068;51.990;5.926;2023-05-18T12:49:37;8.43;;;1.83;;
47335;SDS011;33068;51.990;5.926;2023-05-18T12:52:09;8.52;;;2.17;;
47335;SDS011;33068;51.990;5.926;2023-05-18T12:54:46;4.18;;;1.85;;
47335;SDS011;33068;51.990;5.926;2023-05-18T12:57:19;6.50;;;1.70;;
47335;SDS011;33068;51.990;5.926;2023-05-18T12:59:51;5.95;;;1.50;;
47335;SDS011;33068;51.990;5.926;2023-05-18T13:02:28;3.63;;;1.70;;
47335;SDS011;33068;51.990;5.926;2023-05-18T13:05:01;6.72;;;1.85;;
47335;SDS011;33068;51.990;5.926;2023-05-18T13:07:29;4.88;;;1.63;;
47335;SDS011;33068;51.990;5.926;2023-05-18T13:10:03;6.43;;;1.58;;
47335;SDS011;33068;51.990;5.926;2023-05-18T13:12:34;5.00;;;1.90;;
47335;SDS011;33068;51.990;5.926;2023-05-18T13:15:14;6.15;;;1.50;;
47335;SDS011;33068;51.990;5.926;2023-05-18T13:17:54;8.23;;;2.35;;
47335;SDS011;33068;51.990;5.926;2023-05-18T13:20:28;7.90;;;2.47;;
47335;SDS011;33068;51.990;5.926;2023-05-18T13:22:57;9.07;;;1.83;;
47335;SDS011;33068;51.990;5.926;2023-05-18T13:25:25;6.50;;;2.22;;
47335;SDS011;33068;51.990;5.926;2023-05-18T13:27:52;7.25;;;1.90;;
47335;SDS011;33068;51.990;5.926;2023-05-18T13:30:21;6.97;;;1.92;;
47335;SDS011;33068;51.990;5.926;2023-05-18T13:32:49;6.78;;;2.20;;
47335;SDS011;33068;51.990;5.926;2023-05-18T13:35:16;5.53;;;2.17;;
47335;SDS011;33068;51.990;5.926;2023-05-18T13:37:44;4.55;;;1.88;;
47335;SDS011;33068;51.990;5.926;2023-05-18T13:40:13;6.78;;;1.85;;
47335;SDS011;33068;51.990;5.926;2023-05-18T13:42:40;4.32;;;1.83;;
47335;SDS011;33068;51.990;5.926;2023-05-18T13:45:08;7.70;;;1.55;;
47335;SDS011;33068;51.990;5.926;2023-05-18T13:47:38;7.30;;;1.92;;
47335;SDS011;33068;51.990;5.926;2023-05-18T13:50:06;4.00;;;1.42;;
47335;SDS011;33068;51.990;5.926;2023-05-18T13:52:34;8.43;;;1.90;;
47335;SDS011;33068;51.990;5.926;2023-05-18T13:55:01;6.00;;;1.70;;
47335;SDS011;33068;51.990;5.926;2023-05-18T13:57:29;7.15;;;1.80;;
47335;SDS011;33068;51.990;5.926;2023-05-18T13:59:56;6.45;;;1.95;;
47335;SDS011;33068;51.990;5.926;2023-05-18T14:02:38;4.07;;;2.08;;
47335;SDS011;33068;51.990;5.926;2023-05-18T14:07:34;4.68;;;1.30;;
47335;SDS011;33068;51.990;5.926;2023-05-18T14:10:01;4.22;;;1.70;;
47335;SDS011;33068;51.990;5.926;2023-05-18T14:12:28;9.77;;;2.03;;
47335;SDS011;33068;51.990;5.926;2023-05-18T14:14:55;3.95;;;1.40;;
47335;SDS011;33068;51.990;5.926;2023-05-18T14:17:22;6.50;;;1.80;;
47335;SDS011;33068;51.990;5.926;2023-05-18T14:19:50;4.28;;;1.42;;
47335;SDS011;33068;51.990;5.926;2023-05-18T14:22:17;5.30;;;1.85;;
47335;SDS011;33068;51.990;5.926;2023-05-18T14:24:46;6.00;;;2.45;;
47335;SDS011;33068;51.990;5.926;2023-05-18T14:27:13;12.25;;;2.33;;
47335;SDS011;33068;51.990;5.926;2023-05-18T14:29:40;5.20;;;2.05;;
47335;SDS011;33068;51.990;5.926;2023-05-18T14:32:07;8.27;;;2.28;;
47335;SDS011;33068;51.990;5.926;2023-05-18T14:34:34;3.50;;;1.55;;
47335;SDS011;33068;51.990;5.926;2023-05-18T14:37:03;4.38;;;1.67;;
47335;SDS011;33068;51.990;5.926;2023-05-18T14:39:30;6.05;;;1.88;;
47335;SDS011;33068;51.990;5.926;2023-05-18T14:41:57;7.50;;;1.70;;
47335;SDS011;33068;51.990;5.926;2023-05-18T14:44:24;5.65;;;1.70;;
47335;SDS011;33068;51.990;5.926;2023-05-18T14:46:51;5.45;;;2.00;;
47335;SDS011;33068;51.990;5.926;2023-05-18T14:49:18;8.68;;;1.77;;
47335;SDS011;33068;51.990;5.926;2023-05-18T14:51:45;5.82;;;1.83;;
47335;SDS011;33068;51.990;5.926;2023-05-18T14:54:14;10.00;;;2.63;;
47335;SDS011;33068;51.990;5.926;2023-05-18T14:56:42;5.38;;;1.45;;
47335;SDS011;33068;51.990;5.926;2023-05-18T14:59:09;6.40;;;2.30;;
47335;SDS011;33068;51.990;5.926;2023-05-18T15:01:36;8.60;;;2.40;;
47335;SDS011;33068;51.990;5.926;2023-05-18T15:04:03;5.57;;;1.95;;
47335;SDS011;33068;51.990;5.926;2023-05-18T15:06:30;5.25;;;1.83;;